sensor_id;sensor_type;location;lat;lon;timestamp;temperature;humidity
80134;SHT30;69443;51.442;10.564;2023-05-07T00:01:35;15.33;57.09
80134;SHT30;69443;51.442;10.564;2023-05-07T00:04:01;15.31;57.13
80134;SHT30;69443;51.442;10.564;2023-05-07T00:06:26;15.30;57.16
80134;SHT30;69443;51.442;10.564;2023-05-07T00:08:54;15.26;57.62
80134;SHT30;69443;51.442;10.564;2023-05-07T00:11:19;15.26;57.33
80134;SHT30;69443;51.442;10.564;2023-05-07T00:13:45;15.17;57.27
80134;SHT30;69443;51.442;10.564;2023-05-07T00:16:10;15.16;57.33
80134;SHT30;69443;51.442;10.564;2023-05-07T00:18:35;15.10;57.71
80134;SHT30;69443;51.442;10.564;2023-05-07T00:21:01;15.06;58.06
80134;SHT30;69443;51.442;10.564;2023-05-07T00:23:26;15.03;58.08
80134;SHT30;69443;51.442;10.564;2023-05-07T00:25:52;15.00;57.60
80134;SHT30;69443;51.442;10.564;2023-05-07T00:28:17;14.97;57.88
80134;SHT30;69443;51.442;10.564;2023-05-07T00:30:42;14.95;58.00
80134;SHT30;69443;51.442;10.564;2023-05-07T00:33:08;14.96;57.72
80134;SHT30;69443;51.442;10.564;2023-05-07T00:35:33;14.89;57.85
80134;SHT30;69443;51.442;10.564;2023-05-07T00:37:59;14.89;57.74
80134;SHT30;69443;51.442;10.564;2023-05-07T00:40:25;14.85;57.85
80134;SHT30;69443;51.442;10.564;2023-05-07T00:42:50;14.85;57.80
80134;SHT30;69443;51.442;10.564;2023-05-07T00:45:16;14.82;58.31
80134;SHT30;69443;51.442;10.564;2023-05-07T00:47:42;14.80;58.36
80134;SHT30;69443;51.442;10.564;2023-05-07T00:50:08;14.78;57.89
80134;SHT30;69443;51.442;10.564;2023-05-07T00:52:36;14.71;58.25
80134;SHT30;69443;51.442;10.564;2023-05-07T00:55:05;14.72;58.01
80134;SHT30;69443;51.442;10.564;2023-05-07T00:57:37;14.69;58.63
80134;SHT30;69443;51.442;10.564;2023-05-07T01:00:07;14.69;58.12
80134;SHT30;69443;51.442;10.564;2023-05-07T01:02:37;14.64;58.36
80134;SHT30;69443;51.442;10.564;2023-05-07T01:05:04;14.60;58.29
80134;SHT30;69443;51.442;10.564;2023-05-07T01:07:31;14.61;58.50
80134;SHT30;69443;51.442;10.564;2023-05-07T01:09:58;14.57;58.52
80134;SHT30;69443;51.442;10.564;2023-05-07T01:12:24;14.52;58.74
80134;SHT30;69443;51.442;10.564;2023-05-07T01:14:50;14.51;58.42
80134;SHT30;69443;51.442;10.564;2023-05-07T01:17:16;14.49;58.76
80134;SHT30;69443;51.442;10.564;2023-05-07T01:19:42;14.46;59.30
80134;SHT30;69443;51.442;10.564;2023-05-07T01:22:09;14.41;58.89
80134;SHT30;69443;51.442;10.564;2023-05-07T01:24:36;14.41;58.75
80134;SHT30;69443;51.442;10.564;2023-05-07T01:27:02;14.40;58.76
80134;SHT30;69443;51.442;10.564;2023-05-07T01:29:28;14.35;59.31
80134;SHT30;69443;51.442;10.564;2023-05-07T01:31:55;14.33;59.41
80134;SHT30;69443;51.442;10.564;2023-05-07T01:34:23;14.30;59.04
80134;SHT30;69443;51.442;10.564;2023-05-07T01:36:50;14.27;58.88
80134;SHT30;69443;51.442;10.564;2023-05-07T01:39:16;14.26;58.87
80134;SHT30;69443;51.442;10.564;2023-05-07T01:41:42;14.23;59.60
80134;SHT30;69443;51.442;10.564;2023-05-07T01:44:10;14.18;59.49
80134;SHT30;69443;51.442;10.564;2023-05-07T01:46:37;14.21;58.94
80134;SHT30;69443;51.442;10.564;2023-05-07T01:49:03;14.18;59.35
80134;SHT30;69443;51.442;10.564;2023-05-07T01:51:29;14.14;59.46
80134;SHT30;69443;51.442;10.564;2023-05-07T01:53:55;14.13;59.05
80134;SHT30;69443;51.442;10.564;2023-05-07T01:56:20;14.09;59.97
80134;SHT30;69443;51.442;10.564;2023-05-07T01:58:46;14.07;59.29
80134;SHT30;69443;51.442;10.564;2023-05-07T02:01:13;14.07;59.14
80134;SHT30;69443;51.442;10.564;2023-05-07T02:03:39;14.06;59.67
80134;SHT30;69443;51.442;10.564;2023-05-07T02:06:04;14.03;59.44
80134;SHT30;69443;51.442;10.564;2023-05-07T02:08:30;14.00;59.36
80134;SHT30;69443;51.442;10.564;2023-05-07T02:10:56;13.98;59.37
80134;SHT30;69443;51.442;10.564;2023-05-07T02:13:21;13.96;59.50
80134;SHT30;69443;51.442;10.564;2023-05-07T02:15:48;13.92;60.14
80134;SHT30;69443;51.442;10.564;2023-05-07T02:18:16;13.92;59.80
80134;SHT30;69443;51.442;10.564;2023-05-07T02:20:42;13.92;59.49
80134;SHT30;69443;51.442;10.564;2023-05-07T02:23:07;13.86;59.98
80134;SHT30;69443;51.442;10.564;2023-05-07T02:25:33;13.83;59.53
80134;SHT30;69443;51.442;10.564;2023-05-07T02:27:58;13.83;59.59
80134;SHT30;69443;51.442;10.564;2023-05-07T02:30:24;13.81;60.17
80134;SHT30;69443;51.442;10.564;2023-05-07T02:32:50;13.78;59.80
80134;SHT30;69443;51.442;10.564;2023-05-07T02:35:15;13.76;60.31
80134;SHT30;69443;51.442;10.564;2023-05-07T02:37:41;13.76;59.74
80134;SHT30;69443;51.442;10.564;2023-05-07T02:40:07;13.72;59.93
80134;SHT30;69443;51.442;10.564;2023-05-07T02:42:32;13.71;59.89
80134;SHT30;69443;51.442;10.564;2023-05-07T02:44:59;13.68;60.01
80134;SHT30;69443;51.442;10.564;2023-05-07T02:47:24;13.71;59.96
80134;SHT30;69443;51.442;10.564;2023-05-07T02:49:52;13.66;59.74
80134;SHT30;69443;51.442;10.564;2023-05-07T02:52:18;13.68;59.78
80134;SHT30;69443;51.442;10.564;2023-05-07T02:54:43;13.62;60.51
80134;SHT30;69443;51.442;10.564;2023-05-07T02:57:08;13.61;59.97
80134;SHT30;69443;51.442;10.564;2023-05-07T02:59:34;13.62;60.07
80134;SHT30;69443;51.442;10.564;2023-05-07T03:01:59;13.58;60.02
80134;SHT30;69443;51.442;10.564;2023-05-07T03:04:25;13.54;60.56
80134;SHT30;69443;51.442;10.564;2023-05-07T03:06:50;13.55;59.93
80134;SHT30;69443;51.442;10.564;2023-05-07T03:09:16;13.54;60.39
80134;SHT30;69443;51.442;10.564;2023-05-07T03:11:41;13.51;60.29
80134;SHT30;69443;51.442;10.564;2023-05-07T03:14:07;13.47;60.36
80134;SHT30;69443;51.442;10.564;2023-05-07T03:16:32;13.47;60.21
80134;SHT30;69443;51.442;10.564;2023-05-07T03:18:58;13.46;60.11
80134;SHT30;69443;51.442;10.564;2023-05-07T03:21:23;13.43;60.17
80134;SHT30;69443;51.442;10.564;2023-05-07T03:23:49;13.43;60.51
80134;SHT30;69443;51.442;10.564;2023-05-07T03:26:14;13.40;60.25
80134;SHT30;69443;51.442;10.564;2023-05-07T03:28:40;13.40;60.09
80134;SHT30;69443;51.442;10.564;2023-05-07T03:31:05;13.40;60.47
80134;SHT30;69443;51.442;10.564;2023-05-07T03:33:33;13.37;60.29
80134;SHT30;69443;51.442;10.564;2023-05-07T03:35:58;13.37;60.24
80134;SHT30;69443;51.442;10.564;2023-05-07T03:38:24;13.34;60.32
80134;SHT30;69443;51.442;10.564;2023-05-07T03:40:49;13.33;60.33
80134;SHT30;69443;51.442;10.564;2023-05-07T03:43:14;13.30;60.59
80134;SHT30;69443;51.442;10.564;2023-05-07T03:45:40;13.31;60.38
80134;SHT30;69443;51.442;10.564;2023-05-07T03:48:05;13.28;60.57
80134;SHT30;69443;51.442;10.564;2023-05-07T03:50:31;13.28;60.34
80134;SHT30;69443;51.442;10.564;2023-05-07T03:52:56;13.27;60.22
80134;SHT30;69443;51.442;10.564;2023-05-07T03:55:21;13.24;61.73
80134;SHT30;69443;51.442;10.564;2023-05-07T03:57:47;13.27;60.38
80134;SHT30;69443;51.442;10.564;2023-05-07T04:00:13;13.21;61.39
80134;SHT30;69443;51.442;10.564;2023-05-07T04:02:38;13.23;60.54
80134;SHT30;69443;51.442;10.564;2023-05-07T04:05:04;13.21;60.40
80134;SHT30;69443;51.442;10.564;2023-05-07T04:07:30;13.21;60.42
80134;SHT30;69443;51.442;10.564;2023-05-07T04:09:55;13.17;60.49
80134;SHT30;69443;51.442;10.564;2023-05-07T04:12:20;13.17;60.91
80134;SHT30;69443;51.442;10.564;2023-05-07T04:14:46;13.14;60.90
80134;SHT30;69443;51.442;10.564;2023-05-07T04:17:11;13.14;61.16
80134;SHT30;69443;51.442;10.564;2023-05-07T04:19:37;13.12;60.75
80134;SHT30;69443;51.442;10.564;2023-05-07T04:22:02;13.12;60.72
80134;SHT30;69443;51.442;10.564;2023-05-07T04:24:31;13.12;60.87
80134;SHT30;69443;51.442;10.564;2023-05-07T04:26:57;13.10;60.90
80134;SHT30;69443;51.442;10.564;2023-05-07T04:29:23;13.09;62.36
80134;SHT30;69443;51.442;10.564;2023-05-07T04:31:48;13.02;62.46
80134;SHT30;69443;51.442;10.564;2023-05-07T04:34:14;13.00;61.92
80134;SHT30;69443;51.442;10.564;2023-05-07T04:36:39;13.00;61.39
80134;SHT30;69443;51.442;10.564;2023-05-07T04:39:05;12.97;61.94
80134;SHT30;69443;51.442;10.564;2023-05-07T04:41:30;12.99;61.31
80134;SHT30;69443;51.442;10.564;2023-05-07T04:43:56;12.96;62.46
80134;SHT30;69443;51.442;10.564;2023-05-07T04:46:24;12.93;62.66
80134;SHT30;69443;51.442;10.564;2023-05-07T04:48:50;12.92;62.35
80134;SHT30;69443;51.442;10.564;2023-05-07T04:51:15;12.89;62.48
80134;SHT30;69443;51.442;10.564;2023-05-07T04:53:40;12.89;61.80
80134;SHT30;69443;51.442;10.564;2023-05-07T04:56:06;12.89;61.89
80134;SHT30;69443;51.442;10.564;2023-05-07T04:58:32;12.86;62.12
80134;SHT30;69443;51.442;10.564;2023-05-07T05:00:58;12.84;62.38
80134;SHT30;69443;51.442;10.564;2023-05-07T05:03:24;12.85;61.95
80134;SHT30;69443;51.442;10.564;2023-05-07T05:05:50;12.84;61.94
80134;SHT30;69443;51.442;10.564;2023-05-07T05:08:17;12.84;62.09
80134;SHT30;69443;51.442;10.564;2023-05-07T05:10:42;12.81;61.95
80134;SHT30;69443;51.442;10.564;2023-05-07T05:13:08;12.82;61.95
80134;SHT30;69443;51.442;10.564;2023-05-07T05:15:34;12.82;61.89
80134;SHT30;69443;51.442;10.564;2023-05-07T05:18:00;12.81;62.11
80134;SHT30;69443;51.442;10.564;2023-05-07T05:20:25;12.76;61.97
80134;SHT30;69443;51.442;10.564;2023-05-07T05:22:51;12.78;62.08
80134;SHT30;69443;51.442;10.564;2023-05-07T05:25:16;12.79;62.18
80134;SHT30;69443;51.442;10.564;2023-05-07T05:27:43;12.76;62.81
80134;SHT30;69443;51.442;10.564;2023-05-07T05:30:08;12.69;63.31
80134;SHT30;69443;51.442;10.564;2023-05-07T05:32:34;12.69;62.88
80134;SHT30;69443;51.442;10.564;2023-05-07T05:34:59;12.68;62.51
80134;SHT30;69443;51.442;10.564;2023-05-07T05:37:25;12.68;63.90
80134;SHT30;69443;51.442;10.564;2023-05-07T05:39:50;12.65;62.64
80134;SHT30;69443;51.442;10.564;2023-05-07T05:42:16;12.64;63.15
80134;SHT30;69443;51.442;10.564;2023-05-07T05:44:41;12.59;63.38
80134;SHT30;69443;51.442;10.564;2023-05-07T05:47:06;12.59;63.34
80134;SHT30;69443;51.442;10.564;2023-05-07T05:49:32;12.57;63.18
80134;SHT30;69443;51.442;10.564;2023-05-07T05:51:57;12.55;63.54
80134;SHT30;69443;51.442;10.564;2023-05-07T05:54:23;12.51;64.38
80134;SHT30;69443;51.442;10.564;2023-05-07T05:56:48;12.51;63.39
80134;SHT30;69443;51.442;10.564;2023-05-07T05:59:14;12.50;63.91
80134;SHT30;69443;51.442;10.564;2023-05-07T06:01:40;12.48;63.57
80134;SHT30;69443;51.442;10.564;2023-05-07T06:04:05;12.47;63.66
80134;SHT30;69443;51.442;10.564;2023-05-07T06:06:30;12.45;63.17
80134;SHT30;69443;51.442;10.564;2023-05-07T06:08:57;12.45;63.00
80134;SHT30;69443;51.442;10.564;2023-05-07T06:11:22;12.48;63.44
80134;SHT30;69443;51.442;10.564;2023-05-07T06:13:47;12.45;63.36
80134;SHT30;69443;51.442;10.564;2023-05-07T06:16:14;12.47;63.13
80134;SHT30;69443;51.442;10.564;2023-05-07T06:18:39;12.45;62.97
80134;SHT30;69443;51.442;10.564;2023-05-07T06:21:04;12.47;63.10
80134;SHT30;69443;51.442;10.564;2023-05-07T06:23:30;12.44;63.23
80134;SHT30;69443;51.442;10.564;2023-05-07T06:25:55;12.44;63.48
80134;SHT30;69443;51.442;10.564;2023-05-07T06:28:22;12.45;63.32
80134;SHT30;69443;51.442;10.564;2023-05-07T06:30:47;12.38;65.24
80134;SHT30;69443;51.442;10.564;2023-05-07T06:33:15;12.41;63.46
80134;SHT30;69443;51.442;10.564;2023-05-07T06:35:40;12.38;64.09
80134;SHT30;69443;51.442;10.564;2023-05-07T06:38:06;12.37;64.12
80134;SHT30;69443;51.442;10.564;2023-05-07T06:40:31;12.40;63.47
80134;SHT30;69443;51.442;10.564;2023-05-07T06:42:56;12.41;63.36
80134;SHT30;69443;51.442;10.564;2023-05-07T06:45:22;12.40;63.23
80134;SHT30;69443;51.442;10.564;2023-05-07T06:47:47;12.40;63.27
80134;SHT30;69443;51.442;10.564;2023-05-07T06:50:13;12.40;63.25
80134;SHT30;69443;51.442;10.564;2023-05-07T06:52:38;12.40;63.24
80134;SHT30;69443;51.442;10.564;2023-05-07T06:55:04;12.37;63.59
80134;SHT30;69443;51.442;10.564;2023-05-07T06:57:30;12.37;64.01
80134;SHT30;69443;51.442;10.564;2023-05-07T06:59:55;12.38;63.77
80134;SHT30;69443;51.442;10.564;2023-05-07T07:02:21;12.38;63.86
80134;SHT30;69443;51.442;10.564;2023-05-07T07:04:46;12.36;64.54
80134;SHT30;69443;51.442;10.564;2023-05-07T07:07:11;12.36;64.35
80134;SHT30;69443;51.442;10.564;2023-05-07T07:09:37;12.36;64.62
80134;SHT30;69443;51.442;10.564;2023-05-07T07:12:02;12.34;64.43
80134;SHT30;69443;51.442;10.564;2023-05-07T07:14:28;12.31;64.49
80134;SHT30;69443;51.442;10.564;2023-05-07T07:16:53;12.31;63.99
80134;SHT30;69443;51.442;10.564;2023-05-07T07:19:18;12.34;63.83
80134;SHT30;69443;51.442;10.564;2023-05-07T07:21:45;12.33;63.76
80134;SHT30;69443;51.442;10.564;2023-05-07T07:24:10;12.33;64.25
80134;SHT30;69443;51.442;10.564;2023-05-07T07:26:36;12.33;63.95
80134;SHT30;69443;51.442;10.564;2023-05-07T07:29:01;12.31;64.59
80134;SHT30;69443;51.442;10.564;2023-05-07T07:31:26;12.34;64.64
80134;SHT30;69443;51.442;10.564;2023-05-07T07:33:52;12.34;64.74
80134;SHT30;69443;51.442;10.564;2023-05-07T07:36:17;12.34;64.26
80134;SHT30;69443;51.442;10.564;2023-05-07T07:38:43;12.37;64.50
80134;SHT30;69443;51.442;10.564;2023-05-07T07:41:09;12.37;64.06
80134;SHT30;69443;51.442;10.564;2023-05-07T07:43:34;12.34;64.76
80134;SHT30;69443;51.442;10.564;2023-05-07T07:46:01;12.37;64.59
80134;SHT30;69443;51.442;10.564;2023-05-07T07:48:26;12.38;64.46
80134;SHT30;69443;51.442;10.564;2023-05-07T07:50:51;12.38;64.45
80134;SHT30;69443;51.442;10.564;2023-05-07T07:53:17;12.37;65.17
80134;SHT30;69443;51.442;10.564;2023-05-07T07:55:43;12.37;64.68
80134;SHT30;69443;51.442;10.564;2023-05-07T07:58:09;12.36;65.35
80134;SHT30;69443;51.442;10.564;2023-05-07T08:00:34;12.37;64.68
80134;SHT30;69443;51.442;10.564;2023-05-07T08:03:00;12.38;65.12
80134;SHT30;69443;51.442;10.564;2023-05-07T08:05:26;12.38;64.68
80134;SHT30;69443;51.442;10.564;2023-05-07T08:07:51;12.41;64.80
80134;SHT30;69443;51.442;10.564;2023-05-07T08:10:18;12.44;64.40
80134;SHT30;69443;51.442;10.564;2023-05-07T08:12:50;12.47;64.11
80134;SHT30;69443;51.442;10.564;2023-05-07T08:15:17;12.44;65.29
80134;SHT30;69443;51.442;10.564;2023-05-07T08:17:42;12.45;64.22
80134;SHT30;69443;51.442;10.564;2023-05-07T08:20:08;12.47;64.14
80134;SHT30;69443;51.442;10.564;2023-05-07T08:22:34;12.50;64.08
80134;SHT30;69443;51.442;10.564;2023-05-07T08:25:00;12.50;64.12
80134;SHT30;69443;51.442;10.564;2023-05-07T08:27:25;12.54;63.84
80134;SHT30;69443;51.442;10.564;2023-05-07T08:29:51;12.57;63.81
80134;SHT30;69443;51.442;10.564;2023-05-07T08:32:16;12.58;63.92
80134;SHT30;69443;51.442;10.564;2023-05-07T08:34:42;12.62;64.12
80134;SHT30;69443;51.442;10.564;2023-05-07T08:37:07;12.64;64.01
80134;SHT30;69443;51.442;10.564;2023-05-07T08:39:32;12.61;65.44
80134;SHT30;69443;51.442;10.564;2023-05-07T08:42:00;12.62;65.19
80134;SHT30;69443;51.442;10.564;2023-05-07T08:44:33;12.64;64.22
80134;SHT30;69443;51.442;10.564;2023-05-07T08:47:00;12.69;63.96
80134;SHT30;69443;51.442;10.564;2023-05-07T08:49:27;12.75;63.87
80134;SHT30;69443;51.442;10.564;2023-05-07T08:51:52;12.74;63.64
80134;SHT30;69443;51.442;10.564;2023-05-07T08:54:18;12.76;63.61
80134;SHT30;69443;51.442;10.564;2023-05-07T08:56:44;12.82;63.81
80134;SHT30;69443;51.442;10.564;2023-05-07T08:59:11;12.84;63.52
80134;SHT30;69443;51.442;10.564;2023-05-07T09:01:37;12.86;63.40
80134;SHT30;69443;51.442;10.564;2023-05-07T09:04:04;12.88;63.36
80134;SHT30;69443;51.442;10.564;2023-05-07T09:06:29;12.92;63.88
80134;SHT30;69443;51.442;10.564;2023-05-07T09:08:55;12.93;63.32
80134;SHT30;69443;51.442;10.564;2023-05-07T09:11:24;12.95;63.21
80134;SHT30;69443;51.442;10.564;2023-05-07T09:13:56;12.96;64.39
80134;SHT30;69443;51.442;10.564;2023-05-07T09:16:24;12.96;63.98
80134;SHT30;69443;51.442;10.564;2023-05-07T09:18:53;12.99;64.36
80134;SHT30;69443;51.442;10.564;2023-05-07T09:21:20;12.99;63.56
80134;SHT30;69443;51.442;10.564;2023-05-07T09:23:51;13.04;63.51
80134;SHT30;69443;51.442;10.564;2023-05-07T09:26:17;13.06;63.55
80134;SHT30;69443;51.442;10.564;2023-05-07T09:28:42;13.06;63.19
80134;SHT30;69443;51.442;10.564;2023-05-07T09:31:09;13.10;63.06
80134;SHT30;69443;51.442;10.564;2023-05-07T09:33:35;13.13;63.50
80134;SHT30;69443;51.442;10.564;2023-05-07T09:36:05;13.14;63.87
80134;SHT30;69443;51.442;10.564;2023-05-07T09:38:32;13.17;63.20
80134;SHT30;69443;51.442;10.564;2023-05-07T09:41:05;13.19;63.19
80134;SHT30;69443;51.442;10.564;2023-05-07T09:43:35;13.21;63.13
80134;SHT30;69443;51.442;10.564;2023-05-07T09:46:06;13.24;62.64
80134;SHT30;69443;51.442;10.564;2023-05-07T09:48:36;13.28;63.02
80134;SHT30;69443;51.442;10.564;2023-05-07T09:51:02;13.28;63.00
80134;SHT30;69443;51.442;10.564;2023-05-07T09:53:33;13.30;62.97
80134;SHT30;69443;51.442;10.564;2023-05-07T09:55:58;13.36;62.53
80134;SHT30;69443;51.442;10.564;2023-05-07T09:58:25;13.36;62.44
80134;SHT30;69443;51.442;10.564;2023-05-07T10:00:52;13.40;62.35
80134;SHT30;69443;51.442;10.564;2023-05-07T10:03:18;13.38;63.27
80134;SHT30;69443;51.442;10.564;2023-05-07T10:05:44;13.36;63.21
80134;SHT30;69443;51.442;10.564;2023-05-07T10:08:11;13.41;62.64
80134;SHT30;69443;51.442;10.564;2023-05-07T10:10:37;13.43;63.05
80134;SHT30;69443;51.442;10.564;2023-05-07T10:13:03;13.40;62.91
80134;SHT30;69443;51.442;10.564;2023-05-07T10:15:31;13.43;62.87
80134;SHT30;69443;51.442;10.564;2023-05-07T10:17:57;13.41;62.62
80134;SHT30;69443;51.442;10.564;2023-05-07T10:20:23;13.43;62.49
80134;SHT30;69443;51.442;10.564;2023-05-07T10:22:49;13.43;62.99
80134;SHT30;69443;51.442;10.564;2023-05-07T10:25:21;13.41;63.75
80134;SHT30;69443;51.442;10.564;2023-05-07T10:27:52;13.41;63.31
80134;SHT30;69443;51.442;10.564;2023-05-07T10:33:11;13.47;62.33
80134;SHT30;69443;51.442;10.564;2023-05-07T10:35:43;13.46;63.32
80134;SHT30;69443;51.442;10.564;2023-05-07T10:38:09;13.43;63.20
80134;SHT30;69443;51.442;10.564;2023-05-07T10:40:35;13.46;62.72
80134;SHT30;69443;51.442;10.564;2023-05-07T10:43:03;13.44;63.34
80134;SHT30;69443;51.442;10.564;2023-05-07T10:45:31;13.46;62.94
80134;SHT30;69443;51.442;10.564;2023-05-07T10:48:15;13.44;63.50
80134;SHT30;69443;51.442;10.564;2023-05-07T10:50:43;13.44;63.46
80134;SHT30;69443;51.442;10.564;2023-05-07T10:55:41;13.47;63.19
80134;SHT30;69443;51.442;10.564;2023-05-07T10:58:26;13.47;63.45
80134;SHT30;69443;51.442;10.564;2023-05-07T11:01:02;13.46;63.55
80134;SHT30;69443;51.442;10.564;2023-05-07T11:03:29;13.51;62.51
80134;SHT30;69443;51.442;10.564;2023-05-07T11:08:54;13.53;63.06
80134;SHT30;69443;51.442;10.564;2023-05-07T11:17:07;13.54;62.75
80134;SHT30;69443;51.442;10.564;2023-05-07T11:19:54;13.57;62.93
80134;SHT30;69443;51.442;10.564;2023-05-07T11:25:05;13.57;63.03
80134;SHT30;69443;51.442;10.564;2023-05-07T11:27:31;13.59;62.72
80134;SHT30;69443;51.442;10.564;2023-05-07T11:29:57;13.64;62.39
80134;SHT30;69443;51.442;10.564;2023-05-07T11:32:26;13.62;62.20
80134;SHT30;69443;51.442;10.564;2023-05-07T11:34:56;13.65;62.17
80134;SHT30;69443;51.442;10.564;2023-05-07T11:37:23;13.68;62.61
80134;SHT30;69443;51.442;10.564;2023-05-07T11:39:49;13.69;62.28
80134;SHT30;69443;51.442;10.564;2023-05-07T11:42:33;13.75;62.45
80134;SHT30;69443;51.442;10.564;2023-05-07T11:44:59;13.75;62.43
80134;SHT30;69443;51.442;10.564;2023-05-07T11:47:25;13.78;62.12
80134;SHT30;69443;51.442;10.564;2023-05-07T11:49:53;13.85;61.91
80134;SHT30;69443;51.442;10.564;2023-05-07T11:52:20;13.86;61.90
80134;SHT30;69443;51.442;10.564;2023-05-07T11:54:53;13.89;61.67
80134;SHT30;69443;51.442;10.564;2023-05-07T11:57:20;13.95;61.62
80134;SHT30;69443;51.442;10.564;2023-05-07T11:59:45;13.98;61.52
80134;SHT30;69443;51.442;10.564;2023-05-07T12:02:16;14.00;61.64
80134;SHT30;69443;51.442;10.564;2023-05-07T12:04:42;14.06;61.49
80134;SHT30;69443;51.442;10.564;2023-05-07T12:07:14;14.09;61.43
80134;SHT30;69443;51.442;10.564;2023-05-07T12:09:43;14.06;61.80
80134;SHT30;69443;51.442;10.564;2023-05-07T12:12:09;14.07;61.64
80134;SHT30;69443;51.442;10.564;2023-05-07T12:14:42;14.09;61.71
80134;SHT30;69443;51.442;10.564;2023-05-07T12:17:09;14.12;61.59
80134;SHT30;69443;51.442;10.564;2023-05-07T12:19:35;14.14;61.50
80134;SHT30;69443;51.442;10.564;2023-05-07T12:22:03;14.17;61.26
80134;SHT30;69443;51.442;10.564;2023-05-07T12:24:28;14.21;60.80
80134;SHT30;69443;51.442;10.564;2023-05-07T12:26:54;14.26;60.51
80134;SHT30;69443;51.442;10.564;2023-05-07T12:29:23;14.28;60.67
80134;SHT30;69443;51.442;10.564;2023-05-07T12:31:50;14.31;60.67
80134;SHT30;69443;51.442;10.564;2023-05-07T12:34:15;14.31;60.80
80134;SHT30;69443;51.442;10.564;2023-05-07T12:36:41;14.30;60.89
80134;SHT30;69443;51.442;10.564;2023-05-07T12:39:08;14.31;60.75
80134;SHT30;69443;51.442;10.564;2023-05-07T12:41:57;14.34;60.80
80134;SHT30;69443;51.442;10.564;2023-05-07T12:44:29;14.35;60.71
80134;SHT30;69443;51.442;10.564;2023-05-07T12:46:55;14.41;60.59
80134;SHT30;69443;51.442;10.564;2023-05-07T12:49:21;14.48;60.27
80134;SHT30;69443;51.442;10.564;2023-05-07T12:51:47;14.48;60.62
80134;SHT30;69443;51.442;10.564;2023-05-07T12:54:37;14.51;60.67
80134;SHT30;69443;51.442;10.564;2023-05-07T12:57:04;14.60;60.36
80134;SHT30;69443;51.442;10.564;2023-05-07T12:59:32;14.64;60.11
80134;SHT30;69443;51.442;10.564;2023-05-07T13:01:57;14.69;59.80
80134;SHT30;69443;51.442;10.564;2023-05-07T13:04:24;14.69;59.79
80134;SHT30;69443;51.442;10.564;2023-05-07T13:06:50;14.73;59.68
80134;SHT30;69443;51.442;10.564;2023-05-07T13:09:15;14.75;59.76
80134;SHT30;69443;51.442;10.564;2023-05-07T13:11:40;14.78;59.42
80134;SHT30;69443;51.442;10.564;2023-05-07T13:14:06;14.83;59.46
80134;SHT30;69443;51.442;10.564;2023-05-07T13:16:31;14.89;59.27
80134;SHT30;69443;51.442;10.564;2023-05-07T13:18:57;14.90;59.32
80134;SHT30;69443;51.442;10.564;2023-05-07T13:21:22;14.96;59.20
80134;SHT30;69443;51.442;10.564;2023-05-07T13:23:47;14.99;59.17
80134;SHT30;69443;51.442;10.564;2023-05-07T13:26:13;14.99;59.47
80134;SHT30;69443;51.442;10.564;2023-05-07T13:28:38;14.99;59.22
80134;SHT30;69443;51.442;10.564;2023-05-07T13:31:03;15.04;59.15
80134;SHT30;69443;51.442;10.564;2023-05-07T13:33:30;15.08;59.11
80134;SHT30;69443;51.442;10.564;2023-05-07T13:35:55;15.11;59.12
80134;SHT30;69443;51.442;10.564;2023-05-07T13:38:23;15.17;58.94
80134;SHT30;69443;51.442;10.564;2023-05-07T13:40:49;15.19;58.93
80134;SHT30;69443;51.442;10.564;2023-05-07T13:43:14;15.26;58.92
80134;SHT30;69443;51.442;10.564;2023-05-07T13:45:39;15.24;58.69
80134;SHT30;69443;51.442;10.564;2023-05-07T13:48:05;15.28;58.67
80134;SHT30;69443;51.442;10.564;2023-05-07T13:50:30;15.35;58.51
80134;SHT30;69443;51.442;10.564;2023-05-07T13:52:56;15.37;58.36
80134;SHT30;69443;51.442;10.564;2023-05-07T13:55:23;15.38;58.31
80134;SHT30;69443;51.442;10.564;2023-05-07T13:57:57;15.45;58.18
80134;SHT30;69443;51.442;10.564;2023-05-07T14:00:24;15.51;57.96
80134;SHT30;69443;51.442;10.564;2023-05-07T14:02:49;15.51;57.93
80134;SHT30;69443;51.442;10.564;2023-05-07T14:05:14;15.57;57.88
80134;SHT30;69443;51.442;10.564;2023-05-07T14:07:40;15.59;57.67
80134;SHT30;69443;51.442;10.564;2023-05-07T14:10:05;15.62;57.51
80134;SHT30;69443;51.442;10.564;2023-05-07T14:12:32;15.63;57.54
80134;SHT30;69443;51.442;10.564;2023-05-07T14:14:57;15.72;57.54
80134;SHT30;69443;51.442;10.564;2023-05-07T14:17:23;15.75;57.49
80134;SHT30;69443;51.442;10.564;2023-05-07T14:19:50;15.68;57.20
80134;SHT30;69443;51.442;10.564;2023-05-07T14:22:15;15.72;57.21
80134;SHT30;69443;51.442;10.564;2023-05-07T14:24:41;15.78;57.20
80134;SHT30;69443;51.442;10.564;2023-05-07T14:27:06;15.79;56.95
80134;SHT30;69443;51.442;10.564;2023-05-07T14:29:32;15.79;56.96
80134;SHT30;69443;51.442;10.564;2023-05-07T14:31:57;15.82;56.87
80134;SHT30;69443;51.442;10.564;2023-05-07T14:34:23;15.83;57.04
80134;SHT30;69443;51.442;10.564;2023-05-07T14:36:48;15.92;57.09
80134;SHT30;69443;51.442;10.564;2023-05-07T14:39:13;15.89;56.83
80134;SHT30;69443;51.442;10.564;2023-05-07T14:41:39;15.94;56.77
80134;SHT30;69443;51.442;10.564;2023-05-07T14:44:04;15.96;56.82
80134;SHT30;69443;51.442;10.564;2023-05-07T14:46:30;15.99;56.80
80134;SHT30;69443;51.442;10.564;2023-05-07T14:48:56;15.94;56.64
80134;SHT30;69443;51.442;10.564;2023-05-07T14:51:22;15.99;56.55
80134;SHT30;69443;51.442;10.564;2023-05-07T14:53:49;16.00;56.35
80134;SHT30;69443;51.442;10.564;2023-05-07T14:56:15;15.96;56.34
80134;SHT30;69443;51.442;10.564;2023-05-07T14:58:40;16.02;56.69
80134;SHT30;69443;51.442;10.564;2023-05-07T15:01:06;15.99;56.52
80134;SHT30;69443;51.442;10.564;2023-05-07T15:03:31;16.06;56.76
80134;SHT30;69443;51.442;10.564;2023-05-07T15:05:56;16.00;56.21
80134;SHT30;69443;51.442;10.564;2023-05-07T15:08:22;16.03;56.08
80134;SHT30;69443;51.442;10.564;2023-05-07T15:10:48;16.03;56.18
80134;SHT30;69443;51.442;10.564;2023-05-07T15:13:13;16.00;56.14
80134;SHT30;69443;51.442;10.564;2023-05-07T15:15:39;16.00;56.03
80134;SHT30;69443;51.442;10.564;2023-05-07T15:18:04;15.99;56.07
80134;SHT30;69443;51.442;10.564;2023-05-07T15:20:31;16.03;56.37
80134;SHT30;69443;51.442;10.564;2023-05-07T15:22:56;15.97;55.96
80134;SHT30;69443;51.442;10.564;2023-05-07T15:25:22;15.94;55.62
80134;SHT30;69443;51.442;10.564;2023-05-07T15:27:48;15.93;55.94